CheckWX is a tool to help pilots better visualize weather data.  It is not intended as a substitute for an official pre-flight weather briefing.

00:41:52 UTC

DIBK TAF
Bouaké Airport
Côte D’Ivoire
TAF DIBK 262300Z 2700/2718 18004KT 8000 SCT015 PROB30 TEMPO 2700/2702 TS BKN012 FEW030CB PROB30 2705/2708 3500 BR BKN010 BECMG 2710/2712 24010KT

Mar-27@
00:00 UTC

Mar-27 @ 00:00 UTC

Mar-27@
10:00 UTC

Mar-27 @ 10:00 UTC

TAF DIBK 262300Z 2700/2718 18004KT 8000 SCT015
Wind
  • 180° at 4 KTS
Cloud Levels
  • Scattered at 1,500' AGL

Mar-27@
00:00 UTC

Mar-27 @ 00:00 UTC

Mar-27@
02:00 UTC

Mar-27 @ 02:00 UTC

PROB30 TEMPO 2700/2702 TS BKN012 FEW030CB

Temporary - 30% Likelihood

Temporary - 30% Likelihood during this time.

Conditions
Thunderstorm
Cloud Levels
  • Broken at 1,200' AGL
  • Few at 3,000' AGL

Mar-27@
05:00 UTC

Mar-27 @ 05:00 UTC

Mar-27@
08:00 UTC

Mar-27 @ 08:00 UTC

PROB30 2705/2708 3500 BR BKN010

Probable - 30% Likelihood

Probable - 30% Likelihood during this time.

Conditions
Mist
Cloud Levels
  • Broken at 1,000' AGL

Mar-27@
10:00 UTC

Mar-27 @ 10:00 UTC

Mar-27@
18:00 UTC

Mar-27 @ 18:00 UTC

BECMG 2710/2712 24010KT

Becoming

Becoming Conditions expected by Wed, Mar 27, 2019 @ 12:00 UTC

Wind
  • 240° at 10 KTS
Cloud Levels
  • Scattered at 1,500' AGL